sensor_id;sensor_type;location;lat;lon;timestamp;temperature;humidity
41435;DHT22;27177;22.262;114.192;2023-05-07T00:01:47;26.20;99.90
41435;DHT22;27177;22.262;114.192;2023-05-07T00:04:13;26.10;99.90
41435;DHT22;27177;22.262;114.192;2023-05-07T00:06:40;26.20;99.90
41435;DHT22;27177;22.262;114.192;2023-05-07T00:09:06;26.20;99.90
41435;DHT22;27177;22.262;114.192;2023-05-07T00:11:32;26.20;99.90
41435;DHT22;27177;22.262;114.192;2023-05-07T00:13:59;26.20;99.90
41435;DHT22;27177;22.262;114.192;2023-05-07T00:16:25;26.30;99.90
41435;DHT22;27177;22.262;114.192;2023-05-07T00:18:52;26.30;99.90
41435;DHT22;27177;22.262;114.192;2023-05-07T00:21:19;26.40;99.90
41435;DHT22;27177;22.262;114.192;2023-05-07T00:23:47;26.40;99.90
41435;DHT22;27177;22.262;114.192;2023-05-07T00:26:13;26.50;99.90
41435;DHT22;27177;22.262;114.192;2023-05-07T00:28:39;26.50;99.90
41435;DHT22;27177;22.262;114.192;2023-05-07T00:31:08;26.70;99.90
41435;DHT22;27177;22.262;114.192;2023-05-07T00:33:34;26.70;99.90
41435;DHT22;27177;22.262;114.192;2023-05-07T00:36:01;26.70;99.90
41435;DHT22;27177;22.262;114.192;2023-05-07T00:38:27;26.70;99.90
41435;DHT22;27177;22.262;114.192;2023-05-07T00:40:53;26.70;99.90
41435;DHT22;27177;22.262;114.192;2023-05-07T00:43:20;26.70;99.90
41435;DHT22;27177;22.262;114.192;2023-05-07T00:45:46;26.70;99.90
41435;DHT22;27177;22.262;114.192;2023-05-07T00:48:12;26.70;99.90
41435;DHT22;27177;22.262;114.192;2023-05-07T00:50:39;26.80;99.90
41435;DHT22;27177;22.262;114.192;2023-05-07T00:53:05;26.90;99.90
41435;DHT22;27177;22.262;114.192;2023-05-07T00:55:32;27.00;99.90
41435;DHT22;27177;22.262;114.192;2023-05-07T00:57:58;27.10;99.90
41435;DHT22;27177;22.262;114.192;2023-05-07T01:00:25;27.10;99.90
41435;DHT22;27177;22.262;114.192;2023-05-07T01:02:51;27.00;99.90
41435;DHT22;27177;22.262;114.192;2023-05-07T01:05:18;27.00;99.90
41435;DHT22;27177;22.262;114.192;2023-05-07T01:07:44;27.00;99.90
41435;DHT22;27177;22.262;114.192;2023-05-07T01:10:11;26.90;99.90
41435;DHT22;27177;22.262;114.192;2023-05-07T01:12:38;27.00;99.90
41435;DHT22;27177;22.262;114.192;2023-05-07T01:15:06;27.00;99.90
41435;DHT22;27177;22.262;114.192;2023-05-07T01:17:34;27.10;99.90
41435;DHT22;27177;22.262;114.192;2023-05-07T01:20:06;27.10;99.90
41435;DHT22;27177;22.262;114.192;2023-05-07T01:22:33;27.10;99.90
41435;DHT22;27177;22.262;114.192;2023-05-07T01:25:00;27.10;99.90
41435;DHT22;27177;22.262;114.192;2023-05-07T01:27:27;27.10;99.90
41435;DHT22;27177;22.262;114.192;2023-05-07T01:29:53;27.20;99.90
41435;DHT22;27177;22.262;114.192;2023-05-07T01:32:27;27.10;99.90
41435;DHT22;27177;22.262;114.192;2023-05-07T01:34:54;27.10;99.90
41435;DHT22;27177;22.262;114.192;2023-05-07T01:37:21;27.20;99.90
41435;DHT22;27177;22.262;114.192;2023-05-07T01:39:47;27.20;99.90
41435;DHT22;27177;22.262;114.192;2023-05-07T01:42:14;27.30;99.90
41435;DHT22;27177;22.262;114.192;2023-05-07T01:44:40;27.40;99.90
41435;DHT22;27177;22.262;114.192;2023-05-07T01:47:07;27.60;99.90
41435;DHT22;27177;22.262;114.192;2023-05-07T01:49:33;27.70;99.90
41435;DHT22;27177;22.262;114.192;2023-05-07T01:52:00;27.90;99.90
41435;DHT22;27177;22.262;114.192;2023-05-07T01:54:27;28.00;99.90
41435;DHT22;27177;22.262;114.192;2023-05-07T01:56:54;28.00;99.90
41435;DHT22;27177;22.262;114.192;2023-05-07T01:59:21;28.10;99.90
41435;DHT22;27177;22.262;114.192;2023-05-07T02:01:47;28.20;99.90
41435;DHT22;27177;22.262;114.192;2023-05-07T02:04:13;28.30;99.90
41435;DHT22;27177;22.262;114.192;2023-05-07T02:06:39;28.40;99.90
41435;DHT22;27177;22.262;114.192;2023-05-07T02:09:06;28.40;99.90
41435;DHT22;27177;22.262;114.192;2023-05-07T02:11:34;28.50;99.90
41435;DHT22;27177;22.262;114.192;2023-05-07T02:14:01;28.60;99.90
41435;DHT22;27177;22.262;114.192;2023-05-07T02:16:27;28.70;99.90
41435;DHT22;27177;22.262;114.192;2023-05-07T02:18:53;28.70;99.90
41435;DHT22;27177;22.262;114.192;2023-05-07T02:21:20;28.60;99.90
41435;DHT22;27177;22.262;114.192;2023-05-07T02:23:47;28.60;99.90
41435;DHT22;27177;22.262;114.192;2023-05-07T02:26:13;28.50;99.90
41435;DHT22;27177;22.262;114.192;2023-05-07T02:28:39;28.50;99.90
41435;DHT22;27177;22.262;114.192;2023-05-07T02:31:05;28.60;99.90
41435;DHT22;27177;22.262;114.192;2023-05-07T02:33:32;28.60;99.90
41435;DHT22;27177;22.262;114.192;2023-05-07T02:36:11;28.60;99.90
41435;DHT22;27177;22.262;114.192;2023-05-07T02:38:38;28.50;99.90
41435;DHT22;27177;22.262;114.192;2023-05-07T02:41:04;28.50;99.90
41435;DHT22;27177;22.262;114.192;2023-05-07T02:43:30;28.50;99.90
41435;DHT22;27177;22.262;114.192;2023-05-07T02:46:06;28.60;99.90
41435;DHT22;27177;22.262;114.192;2023-05-07T02:48:32;28.40;99.90
41435;DHT22;27177;22.262;114.192;2023-05-07T02:50:59;28.40;99.90
41435;DHT22;27177;22.262;114.192;2023-05-07T02:53:25;28.40;99.90
41435;DHT22;27177;22.262;114.192;2023-05-07T02:55:52;28.50;99.90
41435;DHT22;27177;22.262;114.192;2023-05-07T02:58:19;28.60;99.90
41435;DHT22;27177;22.262;114.192;2023-05-07T03:00:45;28.70;99.90
41435;DHT22;27177;22.262;114.192;2023-05-07T03:03:12;28.80;99.90
41435;DHT22;27177;22.262;114.192;2023-05-07T03:05:38;28.80;99.90
41435;DHT22;27177;22.262;114.192;2023-05-07T03:08:04;28.70;99.90
41435;DHT22;27177;22.262;114.192;2023-05-07T03:10:30;28.80;99.90
41435;DHT22;27177;22.262;114.192;2023-05-07T03:12:58;28.90;99.90
41435;DHT22;27177;22.262;114.192;2023-05-07T03:15:24;29.10;99.90
41435;DHT22;27177;22.262;114.192;2023-05-07T03:17:50;29.10;99.90
41435;DHT22;27177;22.262;114.192;2023-05-07T03:20:16;29.30;99.90
41435;DHT22;27177;22.262;114.192;2023-05-07T03:22:43;29.30;99.90
41435;DHT22;27177;22.262;114.192;2023-05-07T03:25:09;29.20;99.90
41435;DHT22;27177;22.262;114.192;2023-05-07T03:30:07;28.80;99.90
41435;DHT22;27177;22.262;114.192;2023-05-07T03:32:34;28.60;99.90
41435;DHT22;27177;22.262;114.192;2023-05-07T03:35:03;28.50;99.90
41435;DHT22;27177;22.262;114.192;2023-05-07T03:46:21;28.90;99.90
41435;DHT22;27177;22.262;114.192;2023-05-07T03:48:47;28.90;99.90
41435;DHT22;27177;22.262;114.192;2023-05-07T03:51:13;28.80;99.90
41435;DHT22;27177;22.262;114.192;2023-05-07T03:53:39;28.60;99.90
41435;DHT22;27177;22.262;114.192;2023-05-07T03:56:06;28.40;99.90
41435;DHT22;27177;22.262;114.192;2023-05-07T03:58:32;28.30;99.90
41435;DHT22;27177;22.262;114.192;2023-05-07T04:00:58;28.20;99.90
41435;DHT22;27177;22.262;114.192;2023-05-07T04:03:37;28.10;99.90
41435;DHT22;27177;22.262;114.192;2023-05-07T04:06:04;28.20;99.90
41435;DHT22;27177;22.262;114.192;2023-05-07T04:08:30;28.40;99.90
41435;DHT22;27177;22.262;114.192;2023-05-07T04:10:57;28.50;99.90
41435;DHT22;27177;22.262;114.192;2023-05-07T04:13:23;28.60;99.90
41435;DHT22;27177;22.262;114.192;2023-05-07T04:15:50;28.50;99.90
41435;DHT22;27177;22.262;114.192;2023-05-07T04:18:17;28.40;99.90
41435;DHT22;27177;22.262;114.192;2023-05-07T04:20:43;28.30;99.90
41435;DHT22;27177;22.262;114.192;2023-05-07T04:23:10;28.30;99.90
41435;DHT22;27177;22.262;114.192;2023-05-07T04:25:36;28.30;99.90
41435;DHT22;27177;22.262;114.192;2023-05-07T04:28:02;28.30;99.90
41435;DHT22;27177;22.262;114.192;2023-05-07T04:30:29;28.30;99.90
41435;DHT22;27177;22.262;114.192;2023-05-07T04:32:56;28.20;99.90
41435;DHT22;27177;22.262;114.192;2023-05-07T04:35:22;28.20;99.90
41435;DHT22;27177;22.262;114.192;2023-05-07T04:37:48;28.00;99.90
41435;DHT22;27177;22.262;114.192;2023-05-07T04:40:15;27.90;99.90
41435;DHT22;27177;22.262;114.192;2023-05-07T04:42:41;27.80;99.90
41435;DHT22;27177;22.262;114.192;2023-05-07T04:45:08;27.70;99.90
41435;DHT22;27177;22.262;114.192;2023-05-07T04:47:39;27.60;99.90
41435;DHT22;27177;22.262;114.192;2023-05-07T04:50:06;27.40;99.90
41435;DHT22;27177;22.262;114.192;2023-05-07T04:52:33;27.30;99.90
41435;DHT22;27177;22.262;114.192;2023-05-07T04:55:00;27.20;99.90
41435;DHT22;27177;22.262;114.192;2023-05-07T04:57:26;27.20;99.90
41435;DHT22;27177;22.262;114.192;2023-05-07T04:59:53;27.10;99.90
41435;DHT22;27177;22.262;114.192;2023-05-07T05:02:19;27.10;99.90
41435;DHT22;27177;22.262;114.192;2023-05-07T05:04:45;27.00;99.90
41435;DHT22;27177;22.262;114.192;2023-05-07T05:07:12;27.00;99.90
41435;DHT22;27177;22.262;114.192;2023-05-07T05:09:38;26.50;99.90
41435;DHT22;27177;22.262;114.192;2023-05-07T05:12:05;25.80;99.90
41435;DHT22;27177;22.262;114.192;2023-05-07T05:14:32;25.30;99.90
41435;DHT22;27177;22.262;114.192;2023-05-07T05:16:59;25.00;99.90
41435;DHT22;27177;22.262;114.192;2023-05-07T05:19:25;24.80;99.90
41435;DHT22;27177;22.262;114.192;2023-05-07T05:21:51;24.70;99.90
41435;DHT22;27177;22.262;114.192;2023-05-07T05:24:18;24.20;99.90
41435;DHT22;27177;22.262;114.192;2023-05-07T05:26:44;23.70;99.90
41435;DHT22;27177;22.262;114.192;2023-05-07T05:29:10;23.30;99.90
41435;DHT22;27177;22.262;114.192;2023-05-07T05:31:37;23.10;99.90
41435;DHT22;27177;22.262;114.192;2023-05-07T05:34:03;22.90;99.90
41435;DHT22;27177;22.262;114.192;2023-05-07T05:36:29;22.70;99.90
41435;DHT22;27177;22.262;114.192;2023-05-07T05:38:56;22.60;99.90
41435;DHT22;27177;22.262;114.192;2023-05-07T05:41:22;22.60;99.90
41435;DHT22;27177;22.262;114.192;2023-05-07T05:43:49;22.60;99.90
41435;DHT22;27177;22.262;114.192;2023-05-07T05:46:24;22.50;99.90
41435;DHT22;27177;22.262;114.192;2023-05-07T05:48:51;22.50;99.90
41435;DHT22;27177;22.262;114.192;2023-05-07T05:51:17;22.50;99.90
41435;DHT22;27177;22.262;114.192;2023-05-07T05:53:44;22.30;99.90
41435;DHT22;27177;22.262;114.192;2023-05-07T05:56:11;22.30;99.90
41435;DHT22;27177;22.262;114.192;2023-05-07T05:58:39;22.30;99.90
41435;DHT22;27177;22.262;114.192;2023-05-07T06:03:38;22.20;99.90
41435;DHT22;27177;22.262;114.192;2023-05-07T06:06:06;22.10;99.90
41435;DHT22;27177;22.262;114.192;2023-05-07T06:08:32;22.10;99.90
41435;DHT22;27177;22.262;114.192;2023-05-07T06:10:59;22.00;99.90
41435;DHT22;27177;22.262;114.192;2023-05-07T06:13:25;22.10;99.90
41435;DHT22;27177;22.262;114.192;2023-05-07T06:15:51;22.20;99.90
41435;DHT22;27177;22.262;114.192;2023-05-07T06:18:18;22.20;99.90
41435;DHT22;27177;22.262;114.192;2023-05-07T06:20:44;22.20;99.90
41435;DHT22;27177;22.262;114.192;2023-05-07T06:23:11;22.30;99.90
41435;DHT22;27177;22.262;114.192;2023-05-07T06:25:40;22.30;99.90
41435;DHT22;27177;22.262;114.192;2023-05-07T06:28:06;22.30;99.90
41435;DHT22;27177;22.262;114.192;2023-05-07T06:30:37;22.30;99.90
41435;DHT22;27177;22.262;114.192;2023-05-07T06:33:03;22.30;99.90
41435;DHT22;27177;22.262;114.192;2023-05-07T06:35:29;22.40;99.90
41435;DHT22;27177;22.262;114.192;2023-05-07T06:37:55;22.50;99.90
41435;DHT22;27177;22.262;114.192;2023-05-07T07:01:08;22.60;99.90
41435;DHT22;27177;22.262;114.192;2023-05-07T07:03:35;22.50;99.90
41435;DHT22;27177;22.262;114.192;2023-05-07T07:06:01;22.50;99.90
41435;DHT22;27177;22.262;114.192;2023-05-07T07:08:28;22.40;99.90
41435;DHT22;27177;22.262;114.192;2023-05-07T07:10:54;22.40;99.90
41435;DHT22;27177;22.262;114.192;2023-05-07T07:13:20;22.40;99.90
41435;DHT22;27177;22.262;114.192;2023-05-07T07:49:26;22.60;99.90
41435;DHT22;27177;22.262;114.192;2023-05-07T07:51:53;22.60;99.90
41435;DHT22;27177;22.262;114.192;2023-05-07T07:54:19;22.60;99.90
41435;DHT22;27177;22.262;114.192;2023-05-07T07:56:45;22.70;99.90
41435;DHT22;27177;22.262;114.192;2023-05-07T07:59:11;22.70;99.90
41435;DHT22;27177;22.262;114.192;2023-05-07T08:04:07;22.70;99.90
41435;DHT22;27177;22.262;114.192;2023-05-07T08:06:33;22.70;99.90
41435;DHT22;27177;22.262;114.192;2023-05-07T08:09:00;22.80;99.90
41435;DHT22;27177;22.262;114.192;2023-05-07T08:11:26;22.70;99.90
41435;DHT22;27177;22.262;114.192;2023-05-07T08:13:53;22.80;99.90
41435;DHT22;27177;22.262;114.192;2023-05-07T08:18:55;22.80;99.90
41435;DHT22;27177;22.262;114.192;2023-05-07T08:26:32;22.80;99.90
41435;DHT22;27177;22.262;114.192;2023-05-07T08:28:58;22.80;99.90
41435;DHT22;27177;22.262;114.192;2023-05-07T08:31:24;22.90;99.90
41435;DHT22;27177;22.262;114.192;2023-05-07T08:33:51;22.80;99.90
41435;DHT22;27177;22.262;114.192;2023-05-07T08:36:17;22.90;99.90
41435;DHT22;27177;22.262;114.192;2023-05-07T08:38:44;22.80;99.90
41435;DHT22;27177;22.262;114.192;2023-05-07T08:41:11;22.80;99.90
41435;DHT22;27177;22.262;114.192;2023-05-07T08:43:37;22.70;99.90
41435;DHT22;27177;22.262;114.192;2023-05-07T08:46:06;22.70;99.90
41435;DHT22;27177;22.262;114.192;2023-05-07T08:48:34;22.60;99.90
41435;DHT22;27177;22.262;114.192;2023-05-07T09:09:10;22.80;99.90
41435;DHT22;27177;22.262;114.192;2023-05-07T09:11:40;22.80;99.90
41435;DHT22;27177;22.262;114.192;2023-05-07T09:16:33;22.90;99.90
41435;DHT22;27177;22.262;114.192;2023-05-07T09:19:00;22.90;99.90
41435;DHT22;27177;22.262;114.192;2023-05-07T09:21:26;22.80;99.90
41435;DHT22;27177;22.262;114.192;2023-05-07T09:23:53;22.80;99.90
41435;DHT22;27177;22.262;114.192;2023-05-07T09:28:56;22.80;99.90
41435;DHT22;27177;22.262;114.192;2023-05-07T09:33:57;22.70;99.90
41435;DHT22;27177;22.262;114.192;2023-05-07T09:36:24;22.80;99.90
41435;DHT22;27177;22.262;114.192;2023-05-07T09:38:50;22.80;99.90
41435;DHT22;27177;22.262;114.192;2023-05-07T09:41:16;22.90;99.90
41435;DHT22;27177;22.262;114.192;2023-05-07T09:43:43;22.80;99.90
41435;DHT22;27177;22.262;114.192;2023-05-07T10:25:41;23.00;99.90
41435;DHT22;27177;22.262;114.192;2023-05-07T10:33:28;23.00;99.90
41435;DHT22;27177;22.262;114.192;2023-05-07T10:38:30;22.90;99.90
41435;DHT22;27177;22.262;114.192;2023-05-07T10:41:01;23.00;99.90
41435;DHT22;27177;22.262;114.192;2023-05-07T10:43:42;23.00;99.90
41435;DHT22;27177;22.262;114.192;2023-05-07T10:46:16;23.00;99.90
41435;DHT22;27177;22.262;114.192;2023-05-07T10:51:33;23.10;99.90
41435;DHT22;27177;22.262;114.192;2023-05-07T10:56:37;23.10;99.90
41435;DHT22;27177;22.262;114.192;2023-05-07T11:01:55;23.10;99.90
41435;DHT22;27177;22.262;114.192;2023-05-07T11:04:23;23.10;99.90
41435;DHT22;27177;22.262;114.192;2023-05-07T11:14:51;23.00;99.90
41435;DHT22;27177;22.262;114.192;2023-05-07T11:17:19;23.00;99.90
41435;DHT22;27177;22.262;114.192;2023-05-07T11:25:03;22.90;99.90
41435;DHT22;27177;22.262;114.192;2023-05-07T11:32:43;23.00;99.90
41435;DHT22;27177;22.262;114.192;2023-05-07T11:37:44;23.00;99.90
41435;DHT22;27177;22.262;114.192;2023-05-07T11:42:47;23.10;99.90
41435;DHT22;27177;22.262;114.192;2023-05-07T11:45:14;23.10;99.90
41435;DHT22;27177;22.262;114.192;2023-05-07T11:47:49;23.10;99.90
41435;DHT22;27177;22.262;114.192;2023-05-07T11:50:16;23.10;99.90
41435;DHT22;27177;22.262;114.192;2023-05-07T11:52:49;23.00;99.90
41435;DHT22;27177;22.262;114.192;2023-05-07T11:55:17;23.00;99.90
41435;DHT22;27177;22.262;114.192;2023-05-07T11:57:44;23.00;99.90
41435;DHT22;27177;22.262;114.192;2023-05-07T12:00:10;23.00;99.90
41435;DHT22;27177;22.262;114.192;2023-05-07T12:02:37;23.00;99.90
41435;DHT22;27177;22.262;114.192;2023-05-07T12:05:04;23.00;99.90
41435;DHT22;27177;22.262;114.192;2023-05-07T12:07:32;23.00;99.90
41435;DHT22;27177;22.262;114.192;2023-05-07T12:09:59;22.90;99.90
41435;DHT22;27177;22.262;114.192;2023-05-07T12:12:25;23.00;99.90
41435;DHT22;27177;22.262;114.192;2023-05-07T12:14:52;23.00;99.90
41435;DHT22;27177;22.262;114.192;2023-05-07T12:17:18;22.90;99.90
41435;DHT22;27177;22.262;114.192;2023-05-07T12:19:45;22.90;99.90
41435;DHT22;27177;22.262;114.192;2023-05-07T12:22:12;22.90;99.90
41435;DHT22;27177;22.262;114.192;2023-05-07T12:24:43;22.90;99.90
41435;DHT22;27177;22.262;114.192;2023-05-07T12:27:09;22.90;99.90
41435;DHT22;27177;22.262;114.192;2023-05-07T12:29:35;22.90;99.90
41435;DHT22;27177;22.262;114.192;2023-05-07T12:32:05;22.80;99.90
41435;DHT22;27177;22.262;114.192;2023-05-07T12:34:31;22.80;99.90
41435;DHT22;27177;22.262;114.192;2023-05-07T12:37:01;22.90;99.90
41435;DHT22;27177;22.262;114.192;2023-05-07T12:39:27;22.80;99.90
41435;DHT22;27177;22.262;114.192;2023-05-07T12:41:57;22.80;99.90
41435;DHT22;27177;22.262;114.192;2023-05-07T12:44:33;22.80;99.90
41435;DHT22;27177;22.262;114.192;2023-05-07T12:47:03;22.80;99.90
41435;DHT22;27177;22.262;114.192;2023-05-07T12:49:29;22.80;99.90
41435;DHT22;27177;22.262;114.192;2023-05-07T12:51:55;22.90;99.90
41435;DHT22;27177;22.262;114.192;2023-05-07T12:54:31;23.00;99.90
41435;DHT22;27177;22.262;114.192;2023-05-07T12:57:15;23.00;99.90
41435;DHT22;27177;22.262;114.192;2023-05-07T12:59:45;23.00;99.90
41435;DHT22;27177;22.262;114.192;2023-05-07T13:02:11;23.00;99.90
41435;DHT22;27177;22.262;114.192;2023-05-07T13:04:37;23.00;99.90
41435;DHT22;27177;22.262;114.192;2023-05-07T13:07:04;23.00;99.90
41435;DHT22;27177;22.262;114.192;2023-05-07T13:09:30;23.00;99.90
41435;DHT22;27177;22.262;114.192;2023-05-07T13:11:57;23.00;99.90
41435;DHT22;27177;22.262;114.192;2023-05-07T13:14:26;23.00;99.90
41435;DHT22;27177;22.262;114.192;2023-05-07T13:16:53;23.00;99.90
41435;DHT22;27177;22.262;114.192;2023-05-07T13:19:19;23.10;99.90
41435;DHT22;27177;22.262;114.192;2023-05-07T13:21:45;23.10;99.90
41435;DHT22;27177;22.262;114.192;2023-05-07T13:24:12;23.10;99.90
41435;DHT22;27177;22.262;114.192;2023-05-07T13:26:38;23.10;99.90
41435;DHT22;27177;22.262;114.192;2023-05-07T13:29:04;23.10;99.90
41435;DHT22;27177;22.262;114.192;2023-05-07T13:31:30;23.10;99.90
41435;DHT22;27177;22.262;114.192;2023-05-07T13:33:57;23.10;99.90
41435;DHT22;27177;22.262;114.192;2023-05-07T13:36:23;23.10;99.90
41435;DHT22;27177;22.262;114.192;2023-05-07T13:38:50;23.10;99.90
41435;DHT22;27177;22.262;114.192;2023-05-07T13:41:17;23.10;99.90
41435;DHT22;27177;22.262;114.192;2023-05-07T13:43:43;23.10;99.90
41435;DHT22;27177;22.262;114.192;2023-05-07T13:46:09;23.10;99.90
41435;DHT22;27177;22.262;114.192;2023-05-07T13:48:36;23.10;99.90
41435;DHT22;27177;22.262;114.192;2023-05-07T13:58:48;23.10;99.90
41435;DHT22;27177;22.262;114.192;2023-05-07T14:01:14;23.10;99.90
41435;DHT22;27177;22.262;114.192;2023-05-07T14:03:41;23.10;99.90
41435;DHT22;27177;22.262;114.192;2023-05-07T14:06:07;23.10;99.90
41435;DHT22;27177;22.262;114.192;2023-05-07T14:08:33;23.10;99.90
41435;DHT22;27177;22.262;114.192;2023-05-07T14:10:59;23.10;99.90
41435;DHT22;27177;22.262;114.192;2023-05-07T14:13:26;23.10;99.90
41435;DHT22;27177;22.262;114.192;2023-05-07T14:18:28;23.10;99.90
41435;DHT22;27177;22.262;114.192;2023-05-07T14:20:54;23.10;99.90
41435;DHT22;27177;22.262;114.192;2023-05-07T14:23:20;23.10;99.90
41435;DHT22;27177;22.262;114.192;2023-05-07T14:25:55;23.10;99.90
41435;DHT22;27177;22.262;114.192;2023-05-07T14:28:23;23.10;99.90
41435;DHT22;27177;22.262;114.192;2023-05-07T14:30:49;23.10;99.90
41435;DHT22;27177;22.262;114.192;2023-05-07T14:33:17;23.10;99.90
41435;DHT22;27177;22.262;114.192;2023-05-07T14:35:43;23.10;99.90
41435;DHT22;27177;22.262;114.192;2023-05-07T14:38:14;23.00;99.90
41435;DHT22;27177;22.262;114.192;2023-05-07T14:40:41;23.00;99.90
41435;DHT22;27177;22.262;114.192;2023-05-07T14:43:07;23.00;99.90
41435;DHT22;27177;22.262;114.192;2023-05-07T14:45:33;23.00;99.90
41435;DHT22;27177;22.262;114.192;2023-05-07T14:48:00;23.00;99.90
41435;DHT22;27177;22.262;114.192;2023-05-07T14:55:30;22.90;99.90
41435;DHT22;27177;22.262;114.192;2023-05-07T14:57:57;22.80;99.90
41435;DHT22;27177;22.262;114.192;2023-05-07T15:00:23;22.80;99.90
41435;DHT22;27177;22.262;114.192;2023-05-07T15:02:49;22.80;99.90
41435;DHT22;27177;22.262;114.192;2023-05-07T15:05:16;22.80;99.90
41435;DHT22;27177;22.262;114.192;2023-05-07T15:07:44;22.80;99.90
41435;DHT22;27177;22.262;114.192;2023-05-07T15:10:10;22.80;99.90
41435;DHT22;27177;22.262;114.192;2023-05-07T15:12:36;22.90;99.90
41435;DHT22;27177;22.262;114.192;2023-05-07T15:15:03;22.90;99.90
41435;DHT22;27177;22.262;114.192;2023-05-07T15:17:29;22.90;99.90
41435;DHT22;27177;22.262;114.192;2023-05-07T15:19:55;22.90;99.90
41435;DHT22;27177;22.262;114.192;2023-05-07T15:22:22;22.90;99.90
41435;DHT22;27177;22.262;114.192;2023-05-07T15:24:48;23.00;99.90
41435;DHT22;27177;22.262;114.192;2023-05-07T15:27:14;23.00;99.90
41435;DHT22;27177;22.262;114.192;2023-05-07T15:29:42;23.00;99.90
41435;DHT22;27177;22.262;114.192;2023-05-07T15:32:08;23.00;99.90
41435;DHT22;27177;22.262;114.192;2023-05-07T15:34:35;23.00;99.90
41435;DHT22;27177;22.262;114.192;2023-05-07T15:37:02;23.00;99.90
41435;DHT22;27177;22.262;114.192;2023-05-07T15:39:28;23.00;99.90
41435;DHT22;27177;22.262;114.192;2023-05-07T15:41:54;23.00;99.90
41435;DHT22;27177;22.262;114.192;2023-05-07T15:44:21;23.00;99.90
41435;DHT22;27177;22.262;114.192;2023-05-07T15:46:47;23.00;99.90
41435;DHT22;27177;22.262;114.192;2023-05-07T15:49:13;23.00;99.90
41435;DHT22;27177;22.262;114.192;2023-05-07T15:51:39;23.10;99.90
41435;DHT22;27177;22.262;114.192;2023-05-07T15:54:06;23.00;99.90
41435;DHT22;27177;22.262;114.192;2023-05-07T15:56:32;23.00;99.90
41435;DHT22;27177;22.262;114.192;2023-05-07T15:58:59;23.00;99.90
41435;DHT22;27177;22.262;114.192;2023-05-07T16:01:25;23.00;99.90
41435;DHT22;27177;22.262;114.192;2023-05-07T16:03:51;23.00;99.90
41435;DHT22;27177;22.262;114.192;2023-05-07T16:06:17;23.00;99.90
41435;DHT22;27177;22.262;114.192;2023-05-07T16:08:44;23.00;99.90
41435;DHT22;27177;22.262;114.192;2023-05-07T16:11:10;23.10;99.90
41435;DHT22;27177;22.262;114.192;2023-05-07T16:13:36;23.10;99.90
41435;DHT22;27177;22.262;114.192;2023-05-07T16:16:03;23.10;99.90
41435;DHT22;27177;22.262;114.192;2023-05-07T16:18:30;23.10;99.90
41435;DHT22;27177;22.262;114.192;2023-05-07T16:20:56;23.10;99.90
41435;DHT22;27177;22.262;114.192;2023-05-07T16:23:25;23.10;99.90
41435;DHT22;27177;22.262;114.192;2023-05-07T16:25:52;23.10;99.90
41435;DHT22;27177;22.262;114.192;2023-05-07T16:28:18;23.10;99.90
41435;DHT22;27177;22.262;114.192;2023-05-07T16:30:44;23.10;99.90
41435;DHT22;27177;22.262;114.192;2023-05-07T16:33:11;23.10;99.90
41435;DHT22;27177;22.262;114.192;2023-05-07T16:35:37;23.00;99.90
41435;DHT22;27177;22.262;114.192;2023-05-07T16:38:04;23.00;99.90
41435;DHT22;27177;22.262;114.192;2023-05-07T16:40:37;23.00;99.90
41435;DHT22;27177;22.262;114.192;2023-05-07T16:43:04;23.00;99.90
41435;DHT22;27177;22.262;114.192;2023-05-07T16:45:31;23.00;99.90
41435;DHT22;27177;22.262;114.192;2023-05-07T16:47:57;23.00;99.90
41435;DHT22;27177;22.262;114.192;2023-05-07T16:50:23;23.00;99.90
41435;DHT22;27177;22.262;114.192;2023-05-07T16:52:49;23.00;99.90
41435;DHT22;27177;22.262;114.192;2023-05-07T16:55:19;22.90;99.90
41435;DHT22;27177;22.262;114.192;2023-05-07T16:57:46;22.90;99.90
41435;DHT22;27177;22.262;114.192;2023-05-07T17:00:12;22.90;99.90
41435;DHT22;27177;22.262;114.192;2023-05-07T17:02:39;22.90;99.90
41435;DHT22;27177;22.262;114.192;2023-05-07T17:05:05;22.90;99.90
41435;DHT22;27177;22.262;114.192;2023-05-07T17:07:32;22.90;99.90
41435;DHT22;27177;22.262;114.192;2023-05-07T17:09:58;22.90;99.90
41435;DHT22;27177;22.262;114.192;2023-05-07T17:12:25;22.90;99.90
41435;DHT22;27177;22.262;114.192;2023-05-07T17:14:51;22.90;99.90
41435;DHT22;27177;22.262;114.192;2023-05-07T17:17:17;22.90;99.90
41435;DHT22;27177;22.262;114.192;2023-05-07T17:19:44;22.90;99.90
41435;DHT22;27177;22.262;114.192;2023-05-07T17:22:11;22.90;99.90
41435;DHT22;27177;22.262;114.192;2023-05-07T17:24:38;22.90;99.90
41435;DHT22;27177;22.262;114.192;2023-05-07T17:27:06;23.00;99.90
41435;DHT22;27177;22.262;114.192;2023-05-07T17:29:32;23.00;99.90
41435;DHT22;27177;22.262;114.192;2023-05-07T17:31:59;23.00;99.90
41435;DHT22;27177;22.262;114.192;2023-05-07T17:34:25;23.00;99.90
41435;DHT22;27177;22.262;114.192;2023-05-07T17:36:51;23.00;99.90
41435;DHT22;27177;22.262;114.192;2023-05-07T17:39:17;23.00;99.90
41435;DHT22;27177;22.262;114.192;2023-05-07T17:41:44;23.00;99.90
41435;DHT22;27177;22.262;114.192;2023-05-07T17:44:10;23.00;99.90
41435;DHT22;27177;22.262;114.192;2023-05-07T17:46:36;22.90;99.90
41435;DHT22;27177;22.262;114.192;2023-05-07T17:49:03;22.90;99.90
41435;DHT22;27177;22.262;114.192;2023-05-07T17:51:29;22.80;99.90
41435;DHT22;27177;22.262;114.192;2023-05-07T17:53:55;22.80;99.90
41435;DHT22;27177;22.262;114.192;2023-05-07T17:56:22;22.80;99.90
41435;DHT22;27177;22.262;114.192;2023-05-07T17:58:48;22.80;99.90
41435;DHT22;27177;22.262;114.192;2023-05-07T18:01:15;22.80;99.90
41435;DHT22;27177;22.262;114.192;2023-05-07T18:03:42;22.80;99.90
41435;DHT22;27177;22.262;114.192;2023-05-07T18:06:13;22.80;99.90
41435;DHT22;27177;22.262;114.192;2023-05-07T18:08:47;22.80;99.90
41435;DHT22;27177;22.262;114.192;2023-05-07T18:11:14;22.80;99.90
41435;DHT22;27177;22.262;114.192;2023-05-07T18:13:41;22.80;99.90
41435;DHT22;27177;22.262;114.192;2023-05-07T18:16:08;22.80;99.90
41435;DHT22;27177;22.262;114.192;2023-05-07T18:18:35;22.80;99.90
41435;DHT22;27177;22.262;114.192;2023-05-07T18:21:02;22.90;99.90